LZIB METAR and TAF | Updated Today

LZIB METAR

M. R. Štefánik Airport

Observation time: 27 min. ago

LZIB 052030Z 03008KT CAVOK M04/M08 Q1036 NOSIG

Need help? Read our tutorial on how to read METARs or read the parsed version below.

M. R. Štefánik Airport (LZIB) METAR

  • Weather conditions on Sun, 05 Feb 2023 20:30:00 +0000 (27 min. ago):
  • Present conditions: Dry
  • Clouds: Clear skies
  • Visibility: Greater than 10 km
  • Wind: 30 degrees at 8 knots
  • Temperature: -4 celsius
  • Dew point: -8 celsius
  • Pressure: 1036 millibars
  • Remarks: None


Useful to know...

LZIB TAF

M. R. Štefánik Airport

TAF LZIB 051715Z 0518/0618 34008KT CAVOK
Observation time: 3:42 hr. ago
Need help? Read our tutorial on how to read TAFs or read the parsed version below.

Parsed version of TAF for M. R. Štefánik Airport (LZIB)

  • From 05 February at 18:00 UTC, to day 06 of the month at 18:00 UTC
  • Visibility: Greater than 10 km
  • Wind: 340 degrees at 8